Time;durP1;ratioP1;P1;durP2;ratioP2;P2;SDS_P1;SDS_P2;PMS_P1;PMS_P2;Temp;Humidity;BMP_temperature;BMP_pressure;BME280_temperature;BME280_humidity;BME280_pressure;Samples;Min_cycle;Max_cycle;Signal;HPM_P1;HPM_P2
2022/10/04 00:01:20;;;;;;;;;;;;;;;20.70;50.54;101991.78;5138522;27;19961;-37
2022/10/04 00:03:47;;;;;;;;;;;;;;;20.70;50.60;101988.19;5144586;27;19923;-36
2022/10/04 00:06:13;;;;;;;;;;;;;;;20.70;50.68;101982.66;5140459;27;20018;-36
2022/10/04 00:08:56;;;;;;;;;;;;;;;20.70;50.70;101977.94;5121491;27;20426;-37
2022/10/04 00:11:24;;;;;;;;;;;;;;;20.71;50.71;101982.38;5139527;27;19974;-37
2022/10/04 00:13:50;;;;;;;;;;;;;;;20.71;50.64;101985.16;5127128;27;20423;-36
2022/10/04 00:16:18;;;;;;;;;;;;;;;20.70;50.56;101980.72;5136131;27;20034;-36
2022/10/04 00:18:44;;;;;;;;;;;;;;;20.70;50.44;101980.72;5139252;27;20017;-37
2022/10/04 00:21:09;;;;;;;;;;;;;;;20.70;50.59;101979.88;5122270;27;20287;-37
2022/10/04 00:29:22;;;;;;;;;;;;;;;20.70;50.49;101972.41;5167645;27;20405;-34
2022/10/04 00:32:08;;;;;;;;;;;;;;;20.70;50.68;101971.59;5143840;27;20002;-36
2022/10/04 00:34:36;;;;;;;;;;;;;;;20.70;50.67;101966.03;5151325;27;19985;-36
2022/10/04 00:37:02;;;;;;;;;;;;;;;20.71;50.58;101964.94;5161323;27;20392;-36
2022/10/04 00:45:01;;;;;;;;;;;;;;;20.70;50.68;101966.03;5160148;27;19925;-36
2022/10/04 00:47:46;;;;;;;;;;;;;;;20.70;50.73;101969.66;5160896;27;20009;-37
2022/10/04 00:50:17;;;;;;;;;;;;;;;20.70;50.77;101966.03;5142094;27;20431;-36
2022/10/04 00:52:44;;;;;;;;;;;;;;;20.70;50.52;101969.66;5145114;27;20019;-37
2022/10/04 00:55:10;;;;;;;;;;;;;;;20.71;50.75;101964.94;5162094;27;19959;-37
2022/10/04 00:57:39;;;;;;;;;;;;;;;20.70;50.56;101969.66;5150731;27;19958;-36
2022/10/04 01:00:07;;;;;;;;;;;;;;;20.70;50.67;101968.81;5149429;27;20084;-36
2022/10/04 01:02:53;;;;;;;;;;;;;;;20.69;50.56;101970.75;5135497;27;20014;-36
2022/10/04 01:05:19;;;;;;;;;;;;;;;20.70;50.52;101969.66;5133088;27;20041;-37
2022/10/04 01:07:45;;;;;;;;;;;;;;;20.69;50.65;101962.44;5156006;27;19963;-36
2022/10/04 01:10:13;;;;;;;;;;;;;;;20.71;50.61;101967.69;5149935;27;19977;-36
2022/10/04 01:12:41;;;;;;;;;;;;;;;20.70;50.51;101950.28;5152356;27;20025;-36
2022/10/04 01:15:10;;;;;;;;;;;;;;;20.70;50.51;101955.81;5151322;27;20353;-36
2022/10/04 01:17:35;;;;;;;;;;;;;;;20.70;50.56;101955.81;5147620;27;20015;-36
2022/10/04 01:20:01;;;;;;;;;;;;;;;20.71;50.53;101953.88;5151073;27;20282;-37
2022/10/04 01:22:43;;;;;;;;;;;;;;;20.70;50.67;101964.09;5155625;27;19923;-37
2022/10/04 01:25:09;;;;;;;;;;;;;;;20.71;50.58;101948.31;5153904;27;20008;-36
2022/10/04 01:27:41;;;;;;;;;;;;;;;20.71;50.54;101946.38;5128535;27;20220;-36
2022/10/04 01:30:10;;;;;;;;;;;;;;;20.70;50.49;101947.50;5125151;27;20017;-36
2022/10/04 01:32:36;;;;;;;;;;;;;;;20.71;50.69;101945.56;5150803;27;19927;-37
2022/10/04 01:35:01;;;;;;;;;;;;;;;20.71;50.72;101938.09;5148743;27;19963;-36
2022/10/04 01:37:27;;;;;;;;;;;;;;;20.70;50.56;101939.19;5150346;27;19935;-37
2022/10/04 01:39:52;;;;;;;;;;;;;;;20.71;50.64;101937.25;5157620;27;19923;-37
2022/10/04 01:42:19;;;;;;;;;;;;;;;20.71;50.66;101931.72;5153509;27;20350;-37
2022/10/04 01:44:47;;;;;;;;;;;;;;;20.71;50.59;101931.72;5132886;27;20414;-36
2022/10/04 01:47:13;;;;;;;;;;;;;;;20.71;50.58;101937.25;5146782;27;20048;-36
2022/10/04 01:49:40;;;;;;;;;;;;;;;20.71;50.76;101931.72;5126686;27;19981;-37
2022/10/04 01:52:09;;;;;;;;;;;;;;;20.71;50.68;101928.94;5128613;27;19999;-36
2022/10/04 01:54:38;;;;;;;;;;;;;;;20.71;50.54;101928.94;5131064;27;20063;-36
2022/10/04 01:57:06;;;;;;;;;;;;;;;20.71;50.58;101934.50;5116672;27;20387;-36
2022/10/04 01:59:36;;;;;;;;;;;;;;;20.71;50.49;101934.50;5114240;27;19958;-37
2022/10/04 02:02:03;;;;;;;;;;;;;;;20.71;50.71;101917.88;5136549;27;20003;-37
2022/10/04 02:04:29;;;;;;;;;;;;;;;20.70;50.58;101917.06;5134212;27;20414;-37
2022/10/04 02:06:56;;;;;;;;;;;;;;;20.71;50.52;101920.66;5115434;27;20298;-36
2022/10/04 02:09:24;;;;;;;;;;;;;;;20.70;50.56;101921.75;5117832;27;19924;-37
2022/10/04 02:11:51;;;;;;;;;;;;;;;20.70;50.50;101911.50;5119100;27;19955;-36
2022/10/04 02:14:18;;;;;;;;;;;;;;;20.70;50.58;101911.50;5136492;27;20022;-37
2022/10/04 02:16:44;;;;;;;;;;;;;;;20.70;50.64;101910.69;5132772;27;19954;-37
2022/10/04 02:19:09;;;;;;;;;;;;;;;20.71;50.52;101923.41;5119311;27;20287;-37
2022/10/04 02:21:35;;;;;;;;;;;;;;;20.70;50.49;101919.81;5110700;27;19931;-37
2022/10/04 02:24:00;;;;;;;;;;;;;;;20.71;50.71;101912.34;5118532;27;19930;-37
2022/10/04 02:26:26;;;;;;;;;;;;;;;20.71;50.66;101898.50;5137737;27;19927;-37
2022/10/04 02:28:52;;;;;;;;;;;;;;;20.71;50.71;101896.56;5141755;27;19940;-37
2022/10/04 02:34:04;;;;;;;;;;;;;;;20.70;50.61;101886.59;5110306;27;19986;-36
2022/10/04 02:36:30;;;;;;;;;;;;;;;20.70;50.68;101886.59;5131510;27;20274;-37
2022/10/04 02:39:15;;;;;;;;;;;;;;;20.71;50.55;101881.91;5138177;27;19923;-36
2022/10/04 02:41:42;;;;;;;;;;;;;;;20.70;50.83;101875.53;5118581;27;19970;-40
2022/10/04 02:44:28;;;;;;;;;;;;;;;20.70;50.53;101875.53;5133467;27;20447;-40
2022/10/04 02:47:02;;;;;;;;;;;;;;;20.71;50.61;101877.19;5115979;27;19985;-39
2022/10/04 02:49:31;;;;;;;;;;;;;;;20.71;50.57;101879.97;5118703;27;19963;-39
2022/10/04 02:52:00;;;;;;;;;;;;;;;20.70;50.72;101864.47;5114978;27;20358;-39
2022/10/04 02:54:28;;;;;;;;;;;;;;;20.70;50.58;101861.69;5137238;27;20406;-40
2022/10/04 02:56:55;;;;;;;;;;;;;;;20.71;50.54;101862.53;5135663;27;20060;-40
2022/10/04 02:59:20;;;;;;;;;;;;;;;20.71;50.47;101862.53;5135256;27;19951;-39
2022/10/04 03:01:52;;;;;;;;;;;;;;;20.71;50.51;101857.81;5131433;27;20264;-36
2022/10/04 03:04:19;;;;;;;;;;;;;;;20.71;50.55;101863.34;5115667;28;19923;-37
2022/10/04 03:06:45;;;;;;;;;;;;;;;20.71;50.66;101863.34;5114136;27;20434;-37
2022/10/04 03:09:11;;;;;;;;;;;;;;;20.71;50.36;101859.75;5133284;27;19938;-36
2022/10/04 03:11:37;;;;;;;;;;;;;;;20.71;50.54;101854.22;5118135;27;19934;-36
2022/10/04 03:14:04;;;;;;;;;;;;;;;20.71;50.58;101856.97;5135301;27;19973;-37
2022/10/04 03:16:33;;;;;;;;;;;;;;;20.71;50.66;101855.03;5129381;27;20000;-36
2022/10/04 03:18:59;;;;;;;;;;;;;;;20.71;50.61;101855.03;5136094;27;19923;-37
2022/10/04 03:21:24;;;;;;;;;;;;;;;20.71;50.54;101841.19;5134547;27;20298;-37
2022/10/04 03:23:50;;;;;;;;;;;;;;;20.71;50.50;101838.44;5135592;27;19982;-36
2022/10/04 03:26:27;;;;;;;;;;;;;;;20.72;50.56;101833.72;5137794;27;20312;-36
2022/10/04 03:28:52;;;;;;;;;;;;;;;20.72;50.52;101830.97;5138963;27;19985;-36
2022/10/04 03:31:18;;;;;;;;;;;;;;;20.71;50.46;101826.53;5135960;27;20310;-36
2022/10/04 03:33:44;;;;;;;;;;;;;;;20.72;50.60;101819.88;5131735;27;20436;-37
2022/10/04 03:36:11;;;;;;;;;;;;;;;20.72;50.56;101819.88;5131386;27;19943;-36
2022/10/04 03:38:39;;;;;;;;;;;;;;;20.71;50.67;101816.28;5116668;27;20002;-36
2022/10/04 03:41:04;;;;;;;;;;;;;;;20.71;50.45;101819.06;5137748;27;20382;-36
2022/10/04 03:43:30;;;;;;;;;;;;;;;20.71;50.57;101824.59;5117993;27;19970;-37
2022/10/04 03:45:57;;;;;;;;;;;;;;;20.71;50.61;101827.38;5113669;28;19962;-37
2022/10/04 03:48:25;;;;;;;;;;;;;;;20.70;50.77;101820.16;5134043;27;19934;-36
2022/10/04 03:50:51;;;;;;;;;;;;;;;20.72;50.59;101825.44;5136892;27;20045;-36
2022/10/04 03:53:23;;;;;;;;;;;;;;;20.71;50.69;101829.31;5136473;27;19982;-36
2022/10/04 03:55:48;;;;;;;;;;;;;;;20.72;50.61;101822.66;5129672;27;20357;-36
2022/10/04 03:58:14;;;;;;;;;;;;;;;20.72;50.45;101820.72;5140061;27;19988;-37
2022/10/04 04:00:42;;;;;;;;;;;;;;;20.72;50.51;101825.44;5135168;27;20260;-36
2022/10/04 04:03:08;;;;;;;;;;;;;;;20.72;50.49;101822.66;5129675;27;20392;-36
2022/10/04 04:05:34;;;;;;;;;;;;;;;20.71;50.51;101821.00;5119352;27;19931;-37
2022/10/04 04:08:20;;;;;;;;;;;;;;;20.71;50.67;101821.81;5112864;28;20010;-36
2022/10/04 04:10:46;;;;;;;;;;;;;;;20.71;50.62;101823.78;5117393;27;20022;-37
2022/10/04 04:13:22;;;;;;;;;;;;;;;20.71;50.54;101821.00;5131168;27;19966;-37
2022/10/04 04:15:47;;;;;;;;;;;;;;;20.71;50.60;101821.81;5134826;27;20361;-36
2022/10/04 04:18:16;;;;;;;;;;;;;;;20.71;50.54;101832.91;5138421;27;19927;-36
2022/10/04 04:20:41;;;;;;;;;;;;;;;20.72;50.61;101830.97;5132637;27;20006;-36
2022/10/04 04:23:16;;;;;;;;;;;;;;;20.72;50.54;101822.66;5128366;27;19958;-36
2022/10/04 04:25:44;;;;;;;;;;;;;;;20.72;50.48;101814.34;5116294;27;19989;-37
2022/10/04 04:28:21;;;;;;;;;;;;;;;20.72;50.75;101814.34;5120977;27;19948;-36
2022/10/04 04:30:47;;;;;;;;;;;;;;;20.70;50.50;101806.34;5137226;27;19931;-36
2022/10/04 04:33:29;;;;;;;;;;;;;;;20.72;50.67;101808.81;5136762;27;20018;-36
2022/10/04 04:35:55;;;;;;;;;;;;;;;20.72;50.71;101806.88;5132799;27;20738;-36
2022/10/04 04:38:22;;;;;;;;;;;;;;;20.71;50.57;101813.53;5133560;27;19931;-37
2022/10/04 04:40:48;;;;;;;;;;;;;;;20.72;50.61;101806.88;5118847;27;20047;-36
2022/10/04 04:43:17;;;;;;;;;;;;;;;20.72;50.48;101800.50;5135688;27;20397;-36
2022/10/04 04:45:43;;;;;;;;;;;;;;;20.72;50.51;101800.50;5114143;27;20026;-36
2022/10/04 04:48:10;;;;;;;;;;;;;;;20.72;50.58;101798.56;5131873;27;19924;-37
2022/10/04 04:50:36;;;;;;;;;;;;;;;20.72;50.78;101801.34;5112374;27;19963;-36
2022/10/04 04:53:04;;;;;;;;;;;;;;;20.72;50.46;101792.22;5129708;27;20022;-36
2022/10/04 04:55:33;;;;;;;;;;;;;;;20.72;50.63;101795.81;5106511;27;20095;-37
2022/10/04 04:58:21;;;;;;;;;;;;;;;20.71;50.52;101799.69;5106486;27;20271;-36
2022/10/04 05:00:53;;;;;;;;;;;;;;;20.72;50.45;101798.56;5120076;27;20379;-36
2022/10/04 05:03:18;;;;;;;;;;;;;;;20.72;50.45;101792.22;5134336;27;19927;-37
2022/10/04 05:05:46;;;;;;;;;;;;;;;20.71;50.69;101791.38;5129484;27;19931;-36
2022/10/04 05:08:15;;;;;;;;;;;;;;;20.72;50.50;101778.38;5111933;27;20061;-37
2022/10/04 05:10:44;;;;;;;;;;;;;;;20.72;50.57;101772.84;5115216;27;20018;-36
2022/10/04 05:13:09;;;;;;;;;;;;;;;20.71;50.44;101773.94;5116314;27;20026;-36
2022/10/04 05:15:36;;;;;;;;;;;;;;;20.72;50.68;101764.53;5126263;27;19973;-36
2022/10/04 05:18:02;;;;;;;;;;;;;;;20.72;50.71;101770.06;5119465;27;19966;-36
2022/10/04 05:20:28;;;;;;;;;;;;;;;20.71;50.50;101774.78;5117006;27;19981;-36
2022/10/04 05:22:53;;;;;;;;;;;;;;;20.72;50.60;101781.97;5138687;27;19931;-36
2022/10/04 05:25:34;;;;;;;;;;;;;;;20.72;50.56;101789.44;5132685;27;20286;-37
2022/10/04 05:28:00;;;;;;;;;;;;;;;20.72;50.60;101786.69;5137766;27;19965;-37
2022/10/04 05:30:39;;;;;;;;;;;;;;;20.73;50.44;101791.13;5136291;27;19923;-36
2022/10/04 05:33:05;;;;;;;;;;;;;;;20.72;50.66;101783.91;5131702;27;19967;-36
2022/10/04 05:35:51;;;;;;;;;;;;;;;20.72;50.48;101781.97;5136450;27;20082;-36
2022/10/04 05:38:20;;;;;;;;;;;;;;;20.72;50.52;101779.19;5120253;28;20007;-36
2022/10/04 05:40:49;;;;;;;;;;;;;;;20.72;50.66;101778.38;5136859;27;19955;-36
2022/10/04 05:43:26;;;;;;;;;;;;;;;20.71;50.52;101773.94;5136268;27;20017;-35
2022/10/04 05:46:11;;;;;;;;;;;;;;;20.71;50.57;101780.31;5132569;27;20264;-36
2022/10/04 05:48:38;;;;;;;;;;;;;;;20.72;50.68;101781.13;5122057;27;19923;-36
2022/10/04 05:51:11;;;;;;;;;;;;;;;20.72;50.61;101784.72;5128625;27;20649;-36
2022/10/04 05:53:37;;;;;;;;;;;;;;;20.72;50.54;101781.97;5120176;27;20400;-36
2022/10/04 05:56:10;;;;;;;;;;;;;;;20.72;50.57;101778.38;5134421;27;19929;-36
2022/10/04 05:58:40;;;;;;;;;;;;;;;20.72;50.54;101776.44;5136990;27;20019;-36
2022/10/04 06:01:12;;;;;;;;;;;;;;;20.73;50.50;101777.28;5136750;27;19954;-36
2022/10/04 06:03:43;;;;;;;;;;;;;;;20.71;50.53;101777.53;5113260;27;20174;-36
2022/10/04 06:06:13;;;;;;;;;;;;;;;20.72;50.53;101772.84;5141036;27;20353;-36
2022/10/04 06:08:46;;;;;;;;;;;;;;;20.72;50.66;101776.44;5136996;27;20434;-36
2022/10/04 06:11:31;;;;;;;;;;;;;;;20.72;50.53;101781.97;5130949;27;19966;-36
2022/10/04 06:14:04;;;;;;;;;;;;;;;20.72;50.61;101776.44;5123373;28;19968;-36
2022/10/04 06:16:49;;;;;;;;;;;;;;;20.72;50.43;101784.72;5136251;27;20013;-36
2022/10/04 06:19:35;;;;;;;;;;;;;;;20.72;50.70;101783.91;5121643;27;19923;-36
2022/10/04 06:22:16;;;;;;;;;;;;;;;20.73;50.58;101780.06;5127312;27;20351;-36
2022/10/04 06:24:43;;;;;;;;;;;;;;;20.73;50.56;101782.81;5128150;27;20085;-36
2022/10/04 06:27:13;;;;;;;;;;;;;;;20.73;50.49;101785.59;5136016;27;20010;-36
2022/10/04 06:29:41;;;;;;;;;;;;;;;20.72;50.53;101781.13;5144896;27;19939;-36
2022/10/04 06:32:27;;;;;;;;;;;;;;;20.72;50.54;101787.50;5141438;27;20037;-36
2022/10/04 06:34:58;;;;;;;;;;;;;;;20.72;50.48;101787.50;5127098;27;20209;-36
2022/10/04 06:37:37;;;;;;;;;;;;;;;20.73;50.51;101780.88;5134431;27;20048;-36
2022/10/04 06:40:24;;;;;;;;;;;;;;;20.72;50.80;101781.97;5131150;27;19977;-36
2022/10/04 06:42:53;;;;;;;;;;;;;;;20.72;50.51;101784.72;5120724;27;20346;-36
2022/10/04 06:47:59;;;;;;;;;;;;;;;20.72;50.50;101790.28;5179269;27;20288;-34
2022/10/04 06:53:03;;;;;;;;;;;;;;;20.73;50.47;101785.59;5162747;27;19926;-36
2022/10/04 06:55:32;;;;;;;;;;;;;;;20.72;50.62;101776.44;5133109;27;20630;-36
2022/10/04 06:58:18;;;;;;;;;;;;;;;20.73;50.55;101780.88;5126627;27;20006;-37
2022/10/04 07:00:50;;;;;;;;;;;;;;;20.72;50.56;101775.59;5107309;27;20019;-37
2022/10/04 07:03:19;;;;;;;;;;;;;;;20.72;50.49;101779.19;5107699;27;19924;-36
2022/10/04 07:05:45;;;;;;;;;;;;;;;20.72;50.51;101784.72;5124620;27;19969;-37
2022/10/04 07:08:29;;;;;;;;;;;;;;;20.72;50.52;101784.72;5127027;27;19927;-36
2022/10/04 07:10:55;;;;;;;;;;;;;;;20.72;50.65;101789.44;5123961;27;19979;-37
2022/10/04 07:13:26;;;;;;;;;;;;;;;20.72;50.63;101781.13;5106609;27;19924;-37
2022/10/04 07:16:00;;;;;;;;;;;;;;;20.72;50.69;101770.91;5126319;27;20375;-37
2022/10/04 07:18:28;;;;;;;;;;;;;;;20.72;50.60;101781.13;5126552;27;19930;-37
2022/10/04 07:21:02;;;;;;;;;;;;;;;20.73;50.51;101788.38;5105449;27;19963;-36
2022/10/04 07:23:30;;;;;;;;;;;;;;;20.73;50.64;101791.97;5104679;28;19964;-36
2022/10/04 07:25:57;;;;;;;;;;;;;;;20.72;50.46;101790.28;5109291;27;19954;-36
2022/10/04 07:31:21;;;;;;;;;;;;;;;20.73;50.58;101791.13;5097516;27;20538;-36
2022/10/04 07:33:49;;;;;;;;;;;;;;;20.72;50.54;101789.44;5108097;28;19931;-37
2022/10/04 07:36:16;;;;;;;;;;;;;;;20.72;50.49;101797.75;5107829;28;20413;-37
2022/10/04 07:38:50;;;;;;;;;;;;;;;20.71;50.53;101791.38;5107080;27;20315;-37
2022/10/04 07:41:32;;;;;;;;;;;;;;;20.72;50.61;101804.09;5107270;27;20406;-37
2022/10/04 07:44:11;;;;;;;;;;;;;;;20.71;50.55;101805.22;5126021;27;19959;-37
2022/10/04 07:49:26;;;;;;;;;;;;;;;20.72;50.54;101801.34;5161282;27;19925;-34
2022/10/04 07:52:12;;;;;;;;;;;;;;;20.73;50.47;101799.44;5165441;27;19922;-34
2022/10/04 07:54:39;;;;;;;;;;;;;;;20.72;50.51;101798.56;5144271;27;20017;-34
2022/10/04 07:57:07;;;;;;;;;;;;;;;20.73;50.56;101813.28;5149928;27;19971;-34
2022/10/04 07:59:37;;;;;;;;;;;;;;;20.73;50.69;101804.97;5135522;27;20038;-34
2022/10/04 08:02:22;;;;;;;;;;;;;;;20.73;50.49;101802.19;5136779;27;20270;-35
2022/10/04 08:05:00;;;;;;;;;;;;;;;20.72;50.59;101786.69;5118360;27;20122;-34
2022/10/04 08:07:30;;;;;;;;;;;;;;;20.72;50.45;101781.97;5134860;27;20650;-34
2022/10/04 08:09:59;;;;;;;;;;;;;;;20.72;50.48;101790.28;5134254;27;20401;-34
2022/10/04 08:12:27;;;;;;;;;;;;;;;20.73;50.65;101793.91;5132551;27;20442;-34
2022/10/04 08:14:54;;;;;;;;;;;;;;;20.73;50.54;101793.91;5139435;27;19985;-34
2022/10/04 08:20:30;;;;;;;;;;;;;;;20.73;50.51;101785.59;5175214;27;19925;-34
2022/10/04 08:23:00;;;;;;;;;;;;;;;20.73;50.49;101780.88;5140972;27;19966;-37
2022/10/04 08:25:45;;;;;;;;;;;;;;;20.73;50.71;101777.28;5133601;27;20006;-36
2022/10/04 08:31:25;;;;;;;;;;;;;;;20.72;50.48;101781.97;5136554;27;19942;-36
2022/10/04 08:34:00;;;;;;;;;;;;;;;20.73;50.74;101782.81;5145815;27;19976;-36
2022/10/04 08:36:43;;;;;;;;;;;;;;;20.72;50.53;101784.72;5156877;27;19969;-36
2022/10/04 08:39:29;;;;;;;;;;;;;;;20.72;50.46;101779.19;5154878;27;19933;-36
2022/10/04 08:42:15;;;;;;;;;;;;;;;20.72;50.58;101784.72;5133134;27;19931;-36
2022/10/04 08:45:00;;;;;;;;;;;;;;;20.72;50.48;101784.72;5135467;27;19981;-36
2022/10/04 08:47:48;;;;;;;;;;;;;;;20.72;50.49;101778.38;5132297;27;20386;-36
2022/10/04 08:50:22;;;;;;;;;;;;;;;20.72;50.61;101779.19;5150419;27;19959;-37
2022/10/04 08:53:07;;;;;;;;;;;;;;;20.72;50.52;101775.59;5152302;27;20046;-36
2022/10/04 08:55:57;;;;;;;;;;;;;;;20.73;50.51;101782.81;5125909;27;19931;-36
2022/10/04 08:58:43;;;;;;;;;;;;;;;20.72;50.53;101779.19;5129059;27;19930;-37
2022/10/04 09:01:28;;;;;;;;;;;;;;;20.72;50.56;101772.84;5127518;27;20013;-37
2022/10/04 09:09:33;;;;;;;;;;;;;;;20.73;50.48;101780.06;5173241;27;19929;-34
2022/10/04 09:12:19;;;;;;;;;;;;;;;20.72;50.51;101781.97;5139177;27;19978;-34
2022/10/04 09:14:50;;;;;;;;;;;;;;;20.72;50.63;101773.66;5152954;27;20025;-34
2022/10/04 09:17:18;;;;;;;;;;;;;;;20.72;50.56;101773.66;5154485;27;20484;-35
2022/10/04 09:19:52;;;;;;;;;;;;;;;20.73;50.48;101774.53;5132074;27;19923;-34
2022/10/04 09:22:20;;;;;;;;;;;;;;;20.72;50.60;101773.66;5154565;27;19975;-37
2022/10/04 09:25:07;;;;;;;;;;;;;;;20.72;50.67;101770.91;5160187;27;19962;-37
2022/10/04 09:27:39;;;;;;;;;;;;;;;20.72;50.60;101759.00;5146776;27;20030;-36
2022/10/04 09:30:21;;;;;;;;;;;;;;;20.73;50.49;101761.50;5161864;27;19961;-36
2022/10/04 09:33:06;;;;;;;;;;;;;;;20.72;50.63;101762.59;5157740;27;20010;-37
2022/10/04 09:35:42;;;;;;;;;;;;;;;20.73;50.49;101760.69;5139562;27;20074;-36
2022/10/04 09:38:27;;;;;;;;;;;;;;;20.74;50.42;101756.81;5154786;27;20401;-37
2022/10/04 09:40:59;;;;;;;;;;;;;;;20.73;50.49;101755.16;5138885;27;20018;-36
2022/10/04 09:43:28;;;;;;;;;;;;;;;20.72;50.44;101759.81;5137499;27;20031;-37
2022/10/04 09:46:15;;;;;;;;;;;;;;;20.72;50.51;101759.81;5150396;27;20482;-37
2022/10/04 09:48:41;;;;;;;;;;;;;;;20.73;50.45;101752.38;5135231;27;19923;-36
2022/10/04 09:51:17;;;;;;;;;;;;;;;20.74;50.58;101754.03;5158969;27;19955;-37
2022/10/04 09:53:53;;;;;;;;;;;;;;;20.72;50.67;101745.97;5160751;27;19971;-37
2022/10/04 09:56:25;;;;;;;;;;;;;;;20.72;50.50;101750.69;5148377;27;20393;-36
2022/10/04 09:58:57;;;;;;;;;;;;;;;20.73;50.53;101749.59;5145801;27;19962;-36
2022/10/04 10:01:28;;;;;;;;;;;;;;;20.73;50.41;101744.91;5147706;27;20008;-36
2022/10/04 10:04:14;;;;;;;;;;;;;;;20.72;50.51;101739.63;5151808;27;19927;-36
2022/10/04 10:06:45;;;;;;;;;;;;;;;20.74;50.52;101751.25;5137782;27;20469;-37
2022/10/04 10:09:17;;;;;;;;;;;;;;;20.73;50.56;101749.59;5129469;27;19923;-36
2022/10/04 10:15:08;;;;;;;;;;;;;;;20.73;50.49;101757.91;5119139;27;19966;-37
2022/10/04 10:17:38;;;;;;;;;;;;;;;20.72;50.48;101748.75;5131037;27;20030;-36
2022/10/04 10:20:25;;;;;;;;;;;;;;;20.74;50.44;101748.50;5119738;27;20418;-37
2022/10/04 10:22:55;;;;;;;;;;;;;;;20.73;50.50;101746.84;5124507;27;19958;-37
2022/10/04 10:25:26;;;;;;;;;;;;;;;20.73;50.48;101744.06;5142643;27;20011;-36
2022/10/04 10:28:13;;;;;;;;;;;;;;;20.72;50.65;101745.97;5133970;27;19959;-36
2022/10/04 10:30:48;;;;;;;;;;;;;;;20.73;50.51;101736.59;5123944;27;20252;-37
2022/10/04 10:33:20;;;;;;;;;;;;;;;20.73;50.45;101735.78;5135782;27;20064;-36
2022/10/04 10:35:47;;;;;;;;;;;;;;;20.72;50.48;101732.13;5134770;27;19938;-37
2022/10/04 10:38:34;;;;;;;;;;;;;;;20.73;50.51;101736.59;5141138;27;19973;-36
2022/10/04 10:41:07;;;;;;;;;;;;;;;20.73;50.47;101733.81;5120076;27;19974;-36
2022/10/04 10:43:37;;;;;;;;;;;;;;;20.73;50.41;101731.06;5132043;27;20356;-36
2022/10/04 10:46:06;;;;;;;;;;;;;;;20.73;50.60;101733.81;5130185;27;19947;-36
2022/10/04 10:48:52;;;;;;;;;;;;;;;20.73;50.43;101722.75;5114981;27;20018;-37
2022/10/04 10:51:30;;;;;;;;;;;;;;;20.74;50.47;101724.41;5118799;27;20434;-37
2022/10/04 10:54:06;;;;;;;;;;;;;;;20.72;50.46;101723.84;5140194;27;19982;-36
2022/10/04 10:56:34;;;;;;;;;;;;;;;20.72;50.54;101721.06;5133178;27;20434;-37
2022/10/04 10:59:19;;;;;;;;;;;;;;;20.73;50.50;101719.16;5113022;27;19970;-37
2022/10/04 11:01:59;;;;;;;;;;;;;;;20.73;50.58;101719.16;5120824;27;20383;-37
2022/10/04 11:04:34;;;;;;;;;;;;;;;20.73;50.61;101717.22;5135244;27;20090;-36
2022/10/04 11:07:03;;;;;;;;;;;;;;;20.74;50.44;101712.50;5132628;27;20450;-36
2022/10/04 11:09:33;;;;;;;;;;;;;;;20.74;50.54;101716.09;5136715;27;20409;-37
2022/10/04 11:12:18;;;;;;;;;;;;;;;20.74;50.64;101704.22;5128757;27;20375;-37
2022/10/04 11:17:28;;;;;;;;;;;;;;;20.72;50.45;101696.16;5156445;27;19949;-37
2022/10/04 11:20:14;;;;;;;;;;;;;;;20.73;50.59;101692.31;5157588;27;19963;-37
2022/10/04 11:23:00;;;;;;;;;;;;;;;20.73;50.51;101694.25;5142373;27;19965;-37
2022/10/04 11:25:46;;;;;;;;;;;;;;;20.73;50.22;101689.53;5139251;27;19965;-36
2022/10/04 11:28:31;;;;;;;;;;;;;;;20.73;50.48;101689.53;5139258;27;19962;-37
2022/10/04 11:33:53;;;;;;;;;;;;;;;20.73;50.47;101678.47;5166040;27;20006;-37
2022/10/04 11:36:41;;;;;;;;;;;;;;;20.72;50.42;101682.31;5146888;27;20531;-37
2022/10/04 11:39:13;;;;;;;;;;;;;;;20.73;50.56;101683.19;5147670;27;19963;-36
2022/10/04 11:41:52;;;;;;;;;;;;;;;20.73;50.51;101684.00;5163980;27;20022;-36
2022/10/04 11:44:29;;;;;;;;;;;;;;;20.73;50.47;101677.63;5165487;27;20438;-36
2022/10/04 11:47:15;;;;;;;;;;;;;;;20.73;50.42;101674.88;5163638;27;21488;-37
2022/10/04 11:49:53;;;;;;;;;;;;;;;20.72;50.53;101674.00;5150101;27;19969;-37
2022/10/04 11:52:39;;;;;;;;;;;;;;;20.74;50.50;101676.53;5159279;27;20049;-37
2022/10/04 11:55:25;;;;;;;;;;;;;;;20.73;50.44;101678.47;5139480;27;19927;-37
2022/10/04 11:57:54;;;;;;;;;;;;;;;20.74;50.41;101693.13;5127663;27;19988;-36
2022/10/04 12:00:20;;;;;;;;;;;;;;;20.74;50.47;101690.38;5141991;27;19967;-37
2022/10/04 12:02:55;;;;;;;;;;;;;;;20.74;50.24;101691.19;5144977;27;19932;-37
2022/10/04 12:05:22;;;;;;;;;;;;;;;20.74;50.43;101690.38;5121722;27;20046;-36
2022/10/04 12:10:34;;;;;;;;;;;;;;;20.73;50.48;101684.00;5174031;27;19925;-34
2022/10/04 12:15:39;;;;;;;;;;;;;;;20.74;50.55;101671.00;5164592;27;19957;-34
2022/10/04 12:18:27;;;;;;;;;;;;;;;20.73;50.47;101672.94;5167544;27;19969;-34
2022/10/04 12:20:56;;;;;;;;;;;;;;;20.74;50.64;101665.47;5151815;27;19970;-34
2022/10/04 12:23:42;;;;;;;;;;;;;;;20.73;50.48;101667.41;5166675;27;19968;-34
2022/10/04 12:26:30;;;;;;;;;;;;;;;20.73;50.57;101652.72;5149077;27;20022;-34
2022/10/04 12:29:08;;;;;;;;;;;;;;;20.73;50.47;101656.31;5151792;27;20026;-34
2022/10/04 12:31:36;;;;;;;;;;;;;;;20.74;50.35;101648.84;5165444;27;20001;-34
2022/10/04 12:37:03;;;;;;;;;;;;;;;20.74;50.35;101637.78;5173208;27;19930;-34
2022/10/04 12:39:48;;;;;;;;;;;;;;;20.74;50.39;101643.31;5157100;27;19981;-34
2022/10/04 12:42:18;;;;;;;;;;;;;;;20.73;50.47;101642.47;5153646;27;19970;-34
2022/10/04 12:44:49;;;;;;;;;;;;;;;20.73;50.50;101636.94;5172848;27;20010;-34
2022/10/04 12:47:34;;;;;;;;;;;;;;;20.74;50.41;101635.00;5165252;27;20472;-34
2022/10/04 12:50:20;;;;;;;;;;;;;;;20.74;50.52;101629.47;5156237;27;20018;-34
2022/10/04 12:52:53;;;;;;;;;;;;;;;20.73;50.50;101623.09;5153192;27;20025;-34
2022/10/04 12:55:35;;;;;;;;;;;;;;;20.74;50.57;101623.94;5164234;27;19951;-34
2022/10/04 12:58:05;;;;;;;;;;;;;;;20.73;50.38;101617.56;5157639;27;19950;-34
2022/10/04 13:00:31;;;;;;;;;;;;;;;20.74;50.48;101619.22;5150961;27;19966;-34
2022/10/04 13:03:03;;;;;;;;;;;;;;;20.73;50.36;101619.50;5153271;27;20429;-34
2022/10/04 13:05:33;;;;;;;;;;;;;;;20.74;50.41;101621.16;5152488;27;19967;-34
2022/10/04 13:08:09;;;;;;;;;;;;;;;20.74;50.55;101618.41;5137627;27;20001;-34
2022/10/04 13:10:54;;;;;;;;;;;;;;;20.73;50.50;101617.56;5159201;27;20076;-34
2022/10/04 13:13:40;;;;;;;;;;;;;;;20.74;50.62;101619.22;5139736;27;20297;-34
2022/10/04 13:16:19;;;;;;;;;;;;;;;20.74;50.43;101618.41;5140232;27;19973;-34
2022/10/04 13:19:09;;;;;;;;;;;;;;;20.74;50.39;101610.09;5129470;27;19930;-35
2022/10/04 13:24:29;;;;;;;;;;;;;;;20.74;50.45;101602.63;5180766;27;19925;-34
2022/10/04 13:27:00;;;;;;;;;;;;;;;20.74;50.49;101593.50;5177981;27;19962;-34
2022/10/04 13:29:27;;;;;;;;;;;;;;;20.74;50.42;101588.78;5179286;27;19973;-34
2022/10/04 13:31:57;;;;;;;;;;;;;;;20.74;50.57;101576.88;5152365;27;20260;-34
2022/10/04 13:34:42;;;;;;;;;;;;;;;20.74;50.63;101586.00;5154196;27;19950;-34
2022/10/04 13:37:28;;;;;;;;;;;;;;;20.74;50.49;101579.66;5154500;27;19966;-34
2022/10/04 13:39:59;;;;;;;;;;;;;;;20.73;50.61;101578.81;5158653;27;20671;-36
2022/10/04 13:42:44;;;;;;;;;;;;;;;20.73;50.50;101578.81;5175998;27;19985;-36
2022/10/04 13:45:16;;;;;;;;;;;;;;;20.74;50.46;101574.94;5171664;27;19961;-36
2022/10/04 13:47:46;;;;;;;;;;;;;;;20.73;50.51;101570.50;5151478;27;20232;-36
2022/10/04 13:50:21;;;;;;;;;;;;;;;20.73;50.48;101553.91;5174852;27;19927;-36
2022/10/04 13:58:47;;;;;;;;;;;;;;;20.74;50.47;101555.56;5127898;27;20355;-37
2022/10/04 14:01:20;;;;;;;;;;;;;;;20.74;50.44;101549.19;5136224;27;20064;-36
2022/10/04 14:04:05;;;;;;;;;;;;;;;20.74;50.63;101549.19;5153649;27;19944;-37
2022/10/04 14:06:51;;;;;;;;;;;;;;;20.75;50.63;101543.38;5130237;27;20006;-36